Orlando, FL

11:20 PM EDT on September 17, 2014 (GMT -0400)
WFTV, Channel 9 | Change Station
CLOSE
Current Station
Personal Weather Station
Location: Orlando, FL
Elevation: 92 ft
Nearby Weather Stations

Elev 92 ft 28.54 °N, 81.37 °W | Updated 8 minutes ago

Partly Cloudy
Partly Cloudy
77.6 °F
Feels Like 80 °F
N
2.0
Wind Variable Wind from West
Gusts 6.0 mph

Today
High -- | Low -- °F
--% Chance of Precip.
Yesterday
High -- | Low -- °F
Precip. -- in
7:11 AM 7:27 PM
Waning Crescent, 31% visible
Pressure 29.94 in
Visibility 10.0 miles
Clouds Few 2800 ft
Heat Index 80 °F
Dew Point 73 °F
Humidity 85%
Rainfall 0.02 in
Snow Depth Not available.
UV 0 out of 12
Pollen 4.00 out of 12
Ozone Good
PM2.5 Good
Flu Activity Not available.
METAR KORL 180253Z AUTO 23005KT 10SM FEW028 25/22 A2993 RMK AO2 SLP138 T02500222 51018

More Conditions Fewer Conditions

Pressure 29.94 in
Visibility 10.0 miles
Clouds Few 2800 ft
Heat Index 80 °F
Dew Point 73 °F
Humidity 85%
Rainfall 0.02 in
Snow Depth Not available.
UV 0 out of 12
Pollen 4.00 out of 12
Ozone Good
PM2.5 Good
Flu Activity Not available.
METAR KORL 180253Z AUTO 23005KT 10SM FEW028 25/22 A2993 RMK AO2 SLP138 T02500222 51018

More Conditions Fewer Conditions

10-Day Weather Forecast

Almanac

Astronomy

Sep. 17, 2014 Rise Set
Actual Time 7:11 AM EDT 7:27 PM EDT
Civil Twilight 6:47 AM EDT 7:51 PM EDT
Nautical Twilight 6:20 AM EDT 8:19 PM EDT
Astronomical Twilight 5:52 AM EDT 8:46 PM EDT
Moon 1:30 AM EDT (9/17) 3:17 PM EDT (9/17)
Length of Visible Light 13h 03m
Length of Day
12h 16m
Tomorrow will be 1m 41s shorter.
Waning Crescent, 31% of the Moon is Illuminated
Today
Waning Crescent
Sep 24
New
Oct 1
First Quarter
Oct 8
Full
Oct 15
Last Quarter

Today's Extremes

State Highs State Lows

Community

WunderPhotos

Upload Photos

1,754,283 photos uploaded!

Nearby

Air Quality

  Air Quality AQ Index Pollutant
Yesterday Moderate
PM2.5
Yesterday Good
OZONE
Current Good
PM2.5
Current Good
OZONE
Wednesday Moderate
PM2.5
Thursday Good
PM2.5

Snow Depth

Station Depth Elevation
No new snow has been reported.

Earthquake Activity

City Distance Mag. Time & Date
No recent earthquake activity has been reported nearby.
Minimum magnitude displayed is 2.5.

Coastal Water Temperatures

Place Temperature
No Stations Reporting

Nearby Weather Stations